createdAt,value
2022-10-07T00:01:38.109Z,5.28
2022-10-07T00:04:04.725Z,5.32
2022-10-07T00:06:31.362Z,5.05
2022-10-07T00:08:59.495Z,4.60
2022-10-07T00:11:27.257Z,4.63
2022-10-07T00:13:56.024Z,4.63
2022-10-07T00:16:25.112Z,4.95
2022-10-07T00:18:52.335Z,4.35
2022-10-07T00:21:19.492Z,4.60
2022-10-07T00:23:46.874Z,4.63
2022-10-07T00:26:15.501Z,5.38
2022-10-07T00:28:42.295Z,4.85
2022-10-07T00:31:12.073Z,5.22
2022-10-07T00:33:39.030Z,4.97
2022-10-07T00:36:08.206Z,5.80
2022-10-07T00:38:34.880Z,5.35
2022-10-07T00:41:01.477Z,4.88
2022-10-07T00:43:30.045Z,5.13
2022-10-07T00:45:59.970Z,5.28
2022-10-07T00:48:29.183Z,4.22
2022-10-07T00:50:56.193Z,5.20
2022-10-07T00:53:22.916Z,4.60
2022-10-07T00:55:49.590Z,4.97
2022-10-07T00:58:16.600Z,5.03
2022-10-07T01:00:43.202Z,4.85
2022-10-07T01:03:09.755Z,4.57
2022-10-07T01:05:36.326Z,5.63
2022-10-07T01:08:02.924Z,4.80
2022-10-07T01:10:35.062Z,4.30
2022-10-07T01:13:09.047Z,6.05
2022-10-07T01:15:58.178Z,4.53
2022-10-07T01:18:55.053Z,5.00
2022-10-07T01:21:28.773Z,4.82
2022-10-07T01:24:33.411Z,5.20
2022-10-07T01:27:03.960Z,5.50
2022-10-07T01:29:41.032Z,5.75
2022-10-07T01:32:13.098Z,5.05
2022-10-07T01:34:39.682Z,5.30
2022-10-07T01:37:06.954Z,5.95
2022-10-07T01:39:38.120Z,4.80
2022-10-07T01:42:05.038Z,5.57
2022-10-07T01:44:31.654Z,5.60
2022-10-07T01:46:58.484Z,5.10
2022-10-07T01:49:25.303Z,5.88
2022-10-07T01:52:15.946Z,6.25
2022-10-07T01:57:27.624Z,6.20
2022-10-07T02:00:14.137Z,5.35
2022-10-07T02:02:53.116Z,5.30
2022-10-07T02:08:32.213Z,5.10
2022-10-07T02:11:20.405Z,5.03
2022-10-07T02:14:12.382Z,5.65
2022-10-07T02:17:03.586Z,5.38
2022-10-07T02:19:32.930Z,5.28
2022-10-07T02:22:01.951Z,6.20
2022-10-07T02:24:29.597Z,6.20
2022-10-07T02:26:56.622Z,5.47
2022-10-07T02:29:23.217Z,6.25
2022-10-07T02:31:49.804Z,6.18
2022-10-07T02:34:20.091Z,5.95
2022-10-07T02:36:51.686Z,5.65
2022-10-07T02:39:18.322Z,5.15
2022-10-07T02:41:51.656Z,6.10
2022-10-07T02:44:49.018Z,4.60
2022-10-07T02:47:19.866Z,5.10
2022-10-07T02:49:49.308Z,5.88
2022-10-07T02:52:17.402Z,4.72
2022-10-07T02:54:47.115Z,4.72
2022-10-07T02:57:15.513Z,5.60
2022-10-07T02:59:42.214Z,5.82
2022-10-07T03:02:11.438Z,5.28
2022-10-07T03:04:38.185Z,4.85
2022-10-07T03:07:04.929Z,5.07
2022-10-07T03:09:31.587Z,5.75
2022-10-07T03:11:58.244Z,4.28
2022-10-07T03:14:24.872Z,5.32
2022-10-07T03:16:52.669Z,5.13
2022-10-07T03:19:19.320Z,6.45
2022-10-07T03:21:45.977Z,5.90
2022-10-07T03:24:12.531Z,4.88
2022-10-07T03:26:39.688Z,5.18
2022-10-07T03:29:08.232Z,5.45
2022-10-07T03:31:35.157Z,5.65
2022-10-07T03:34:01.931Z,6.60
2022-10-07T03:36:28.579Z,5.30
2022-10-07T03:38:55.588Z,5.90
2022-10-07T03:41:22.359Z,6.38
2022-10-07T03:43:48.928Z,7.13
2022-10-07T03:46:16.686Z,7.15
2022-10-07T03:48:43.265Z,7.13
2022-10-07T03:51:09.842Z,7.53
2022-10-07T03:53:38.301Z,7.57
2022-10-07T03:56:04.999Z,9.70
2022-10-07T03:58:31.598Z,10.27
2022-10-07T04:01:14.995Z,10.18
2022-10-07T04:03:41.928Z,8.35
2022-10-07T04:06:08.665Z,10.82
2022-10-07T04:08:35.388Z,10.40
2022-10-07T04:11:02.337Z,9.80
2022-10-07T04:13:29.142Z,13.00
2022-10-07T04:15:55.878Z,12.90
2022-10-07T04:18:22.926Z,10.80
2022-10-07T04:20:49.570Z,10.43
2022-10-07T04:23:16.448Z,7.55
2022-10-07T04:25:44.347Z,8.38
2022-10-07T04:28:18.849Z,9.10
2022-10-07T04:30:49.095Z,7.80
2022-10-07T04:33:15.681Z,8.13
2022-10-07T04:35:42.932Z,9.30
2022-10-07T04:38:10.249Z,9.20
2022-10-07T04:40:41.014Z,8.55
2022-10-07T04:43:28.955Z,8.40
2022-10-07T04:46:01.410Z,8.35
2022-10-07T04:48:28.049Z,8.25
2022-10-07T04:50:54.771Z,7.68
2022-10-07T04:53:21.780Z,9.23
2022-10-07T04:55:50.056Z,9.13
2022-10-07T04:58:16.969Z,8.07
2022-10-07T05:00:45.250Z,8.23
2022-10-07T05:03:13.048Z,8.13
2022-10-07T05:05:42.197Z,7.97
2022-10-07T05:08:08.849Z,12.52
2022-10-07T05:10:37.036Z,12.05
2022-10-07T05:13:04.388Z,12.13
2022-10-07T05:15:30.981Z,12.15
2022-10-07T05:17:57.583Z,14.82
2022-10-07T05:20:24.175Z,15.45
2022-10-07T05:22:50.767Z,19.15
2022-10-07T05:25:17.456Z,18.15
2022-10-07T05:27:44.355Z,17.45
2022-10-07T05:30:11.854Z,16.42
2022-10-07T05:32:38.521Z,21.80
2022-10-07T05:35:05.542Z,18.10
2022-10-07T05:37:32.357Z,16.67
2022-10-07T05:39:58.971Z,16.63
2022-10-07T05:42:25.535Z,18.05
2022-10-07T05:44:52.192Z,18.85
2022-10-07T05:47:19.709Z,17.17
2022-10-07T05:49:46.525Z,18.58
2022-10-07T05:52:13.153Z,18.80
2022-10-07T05:54:39.758Z,19.38
2022-10-07T05:57:06.360Z,18.20
2022-10-07T05:59:32.941Z,21.30
2022-10-07T06:02:00.328Z,17.75
2022-10-07T06:04:27.479Z,19.17
2022-10-07T06:06:54.103Z,17.55
2022-10-07T06:09:40.634Z,19.20
2022-10-07T06:12:28.367Z,17.20
2022-10-07T06:14:55.116Z,17.58
2022-10-07T06:17:21.750Z,17.45
2022-10-07T06:19:48.414Z,15.75
2022-10-07T06:22:15.083Z,18.77
2022-10-07T06:24:41.744Z,16.05
2022-10-07T06:27:08.326Z,15.57
2022-10-07T06:29:34.939Z,15.32
2022-10-07T06:32:01.886Z,14.15
2022-10-07T06:34:28.501Z,13.75
2022-10-07T06:36:55.108Z,14.23
2022-10-07T06:39:21.674Z,13.88
2022-10-07T06:41:48.858Z,12.43
2022-10-07T06:44:15.431Z,12.60
2022-10-07T06:46:42.030Z,14.25
2022-10-07T06:49:08.615Z,14.25
2022-10-07T06:51:35.174Z,13.43
2022-10-07T06:54:01.975Z,13.60
2022-10-07T06:56:28.973Z,13.63
2022-10-07T06:58:55.633Z,13.85
2022-10-07T07:01:22.503Z,13.95
2022-10-07T07:03:49.165Z,14.50
2022-10-07T07:06:15.807Z,14.85
2022-10-07T07:08:42.607Z,14.13
2022-10-07T07:11:30.698Z,12.63
2022-10-07T07:13:57.485Z,14.77
2022-10-07T07:16:24.461Z,14.93
2022-10-07T07:18:53.029Z,14.68
2022-10-07T07:21:19.899Z,14.80
2022-10-07T07:23:46.468Z,16.13
2022-10-07T07:26:13.471Z,18.80
2022-10-07T07:28:40.342Z,15.95
2022-10-07T07:31:09.391Z,15.57
2022-10-07T07:33:38.321Z,16.02
2022-10-07T07:36:15.917Z,15.70
2022-10-07T07:38:43.597Z,15.85
2022-10-07T07:41:10.881Z,17.60
2022-10-07T07:43:37.464Z,16.08
2022-10-07T07:46:04.970Z,17.15
2022-10-07T07:48:31.662Z,18.02
2022-10-07T07:50:58.324Z,16.67
2022-10-07T07:53:25.089Z,18.52
2022-10-07T07:55:54.325Z,17.88
2022-10-07T07:58:21.650Z,16.02
2022-10-07T08:01:06.057Z,15.45
2022-10-07T08:03:33.662Z,17.20
2022-10-07T08:06:04.113Z,16.17
2022-10-07T08:08:30.999Z,15.75
2022-10-07T08:10:58.317Z,14.95
2022-10-07T08:13:24.896Z,15.13
2022-10-07T08:15:56.661Z,15.18
2022-10-07T08:18:24.188Z,16.03
2022-10-07T08:20:58.642Z,16.80
2022-10-07T08:23:26.931Z,17.63
2022-10-07T08:25:55.267Z,16.30
2022-10-07T08:28:22.058Z,15.95
2022-10-07T08:30:49.478Z,16.15
2022-10-07T08:33:16.220Z,14.35
2022-10-07T08:35:43.300Z,16.65
2022-10-07T08:38:14.291Z,18.08
2022-10-07T08:40:56.353Z,18.20
2022-10-07T08:43:23.788Z,18.55
2022-10-07T08:45:51.629Z,17.35
2022-10-07T08:48:21.858Z,17.65
2022-10-07T08:50:55.416Z,17.60
2022-10-07T08:53:28.563Z,15.63
2022-10-07T08:55:56.657Z,17.33
2022-10-07T08:59:03.207Z,15.40
2022-10-07T09:01:38.487Z,14.68
2022-10-07T09:04:44.921Z,15.65
2022-10-07T09:07:25.678Z,15.52
2022-10-07T09:10:04.206Z,16.38
2022-10-07T09:12:37.085Z,20.20
2022-10-07T09:15:05.683Z,18.88
2022-10-07T09:17:36.454Z,20.00
2022-10-07T09:20:07.242Z,18.38
2022-10-07T09:22:36.458Z,17.67
2022-10-07T09:25:19.044Z,16.35
2022-10-07T09:27:45.829Z,16.10
2022-10-07T09:30:13.275Z,16.92
2022-10-07T09:32:42.198Z,15.27
2022-10-07T09:35:14.394Z,15.15
2022-10-07T09:37:57.998Z,18.00
2022-10-07T09:40:35.866Z,17.05
2022-10-07T09:43:09.855Z,16.35
2022-10-07T09:45:37.632Z,16.40
2022-10-07T09:48:07.679Z,17.48
2022-10-07T09:50:37.545Z,16.02
2022-10-07T09:53:06.732Z,17.27
2022-10-07T09:55:41.663Z,18.30
2022-10-07T09:58:29.199Z,19.40
2022-10-07T10:00:56.922Z,17.35
2022-10-07T10:03:34.106Z,19.35
2022-10-07T10:06:03.461Z,17.85
2022-10-07T10:08:32.523Z,17.63
2022-10-07T10:11:01.515Z,17.98
2022-10-07T10:13:36.651Z,17.88
2022-10-07T10:16:05.254Z,18.83
2022-10-07T10:18:35.450Z,16.83
2022-10-07T10:21:23.040Z,17.13
2022-10-07T10:23:51.790Z,15.57
2022-10-07T10:26:58.248Z,14.88
2022-10-07T10:29:36.731Z,16.73
2022-10-07T10:32:25.707Z,16.52
2022-10-07T10:35:15.053Z,14.57
2022-10-07T10:38:04.165Z,15.50
2022-10-07T10:40:53.935Z,16.20
2022-10-07T10:46:26.825Z,15.23
2022-10-07T10:49:01.365Z,14.15
2022-10-07T10:51:43.111Z,16.35
2022-10-07T10:54:31.838Z,17.15
2022-10-07T10:57:04.923Z,14.18
2022-10-07T10:59:41.088Z,16.15
2022-10-07T11:02:39.022Z,17.48
2022-10-07T11:05:14.948Z,15.65
2022-10-07T11:07:48.259Z,13.95
2022-10-07T11:10:24.252Z,13.95
2022-10-07T11:12:55.046Z,13.80
2022-10-07T11:15:24.406Z,14.30
2022-10-07T11:17:52.072Z,12.77
2022-10-07T11:20:43.815Z,10.13
2022-10-07T11:23:34.256Z,12.60
2022-10-07T11:26:10.786Z,15.48
2022-10-07T11:28:37.469Z,15.20
2022-10-07T11:31:26.281Z,16.33
2022-10-07T11:34:14.654Z,15.93
2022-10-07T11:36:47.492Z,17.15
2022-10-07T11:39:14.040Z,14.32
2022-10-07T11:42:05.237Z,14.18
2022-10-07T11:44:37.982Z,12.35
2022-10-07T11:47:04.872Z,13.55
2022-10-07T11:49:40.067Z,13.07
2022-10-07T11:52:10.720Z,17.88
2022-10-07T11:54:43.533Z,13.65
2022-10-07T11:57:19.589Z,15.38
2022-10-07T11:59:49.478Z,14.15
2022-10-07T12:02:35.677Z,14.63
2022-10-07T12:05:02.629Z,13.85
2022-10-07T12:07:36.842Z,14.52
2022-10-07T12:15:43.298Z,14.88
2022-10-07T12:20:57.559Z,12.52
2022-10-07T12:26:03.282Z,15.93
2022-10-07T12:33:57.330Z,14.27
2022-10-07T12:36:28.047Z,16.20
2022-10-07T12:39:20.348Z,17.77
2022-10-07T12:41:46.976Z,17.13
2022-10-07T12:44:26.384Z,16.35
2022-10-07T12:46:57.042Z,15.93
2022-10-07T12:49:43.254Z,14.77
2022-10-07T12:52:31.926Z,12.43
2022-10-07T12:55:28.539Z,11.52
2022-10-07T12:58:15.983Z,12.30
2022-10-07T13:00:51.759Z,10.77
2022-10-07T13:03:36.431Z,12.85
2022-10-07T13:06:31.159Z,12.20
2022-10-07T13:09:36.273Z,12.27
2022-10-07T13:12:26.836Z,11.35
2022-10-07T13:15:16.547Z,10.98
2022-10-07T13:17:51.566Z,12.88
2022-10-07T13:20:32.742Z,14.13
2022-10-07T13:23:12.115Z,12.70
2022-10-07T13:25:45.092Z,13.73
2022-10-07T13:28:16.375Z,15.23
2022-10-07T13:30:44.065Z,15.75
2022-10-07T13:33:14.015Z,14.98
2022-10-07T13:35:41.721Z,14.02
2022-10-07T13:38:27.016Z,15.35
2022-10-07T13:41:15.539Z,16.17
2022-10-07T13:43:43.696Z,15.02
2022-10-07T13:46:10.566Z,14.73
2022-10-07T13:48:43.109Z,18.60
2022-10-07T13:51:22.160Z,17.27
2022-10-07T13:53:54.839Z,20.75
2022-10-07T13:58:52.390Z,16.80
2022-10-07T14:01:19.395Z,12.48
2022-10-07T14:07:16.755Z,12.88
2022-10-07T14:09:47.950Z,14.30
2022-10-07T14:15:14.821Z,13.80
2022-10-07T14:17:47.128Z,13.50
2022-10-07T14:20:32.077Z,15.23
2022-10-07T14:23:00.573Z,14.93
2022-10-07T14:25:29.575Z,13.80
2022-10-07T14:30:58.516Z,15.52
2022-10-07T14:33:59.347Z,12.30
2022-10-07T14:36:25.988Z,14.00
2022-10-07T14:38:52.955Z,13.20
2022-10-07T14:41:21.180Z,14.52
2022-10-07T14:43:48.680Z,13.63
2022-10-07T14:46:23.844Z,14.80
2022-10-07T14:48:51.578Z,15.48
2022-10-07T14:51:26.891Z,15.23
2022-10-07T14:53:55.620Z,15.32
2022-10-07T14:56:28.108Z,14.95
2022-10-07T14:58:56.128Z,13.38
2022-10-07T15:01:23.590Z,14.68
2022-10-07T15:03:50.488Z,15.25
2022-10-07T15:06:17.630Z,13.75
2022-10-07T15:08:44.735Z,17.92
2022-10-07T15:11:14.611Z,18.85
2022-10-07T15:13:43.034Z,15.25
2022-10-07T15:16:14.610Z,18.00
2022-10-07T15:18:45.167Z,16.20
2022-10-07T15:21:13.875Z,15.52
2022-10-07T15:23:40.956Z,15.73
2022-10-07T15:26:07.927Z,14.13
2022-10-07T15:28:34.642Z,17.10
2022-10-07T15:31:03.170Z,16.33
2022-10-07T15:33:30.944Z,15.55
2022-10-07T15:35:58.519Z,16.10
2022-10-07T15:38:26.858Z,17.05
2022-10-07T15:40:55.546Z,16.70
2022-10-07T15:43:22.271Z,15.70
2022-10-07T15:45:50.110Z,16.98
2022-10-07T15:48:18.290Z,18.20
2022-10-07T15:50:47.981Z,18.52
2022-10-07T15:53:15.660Z,17.58
2022-10-07T15:55:51.890Z,18.98
2022-10-07T15:58:18.958Z,19.27
2022-10-07T16:00:57.217Z,17.58
2022-10-07T16:03:24.219Z,18.95
2022-10-07T16:05:59.583Z,22.08
2022-10-07T16:08:26.688Z,19.15
2022-10-07T16:10:53.243Z,21.20
2022-10-07T16:13:19.949Z,21.15
2022-10-07T16:16:03.201Z,21.20
2022-10-07T16:18:36.709Z,20.15
2022-10-07T16:21:05.114Z,21.90
2022-10-07T16:23:32.825Z,21.10
2022-10-07T16:26:07.490Z,20.85
2022-10-07T16:28:54.077Z,18.80
2022-10-07T16:31:20.751Z,23.30
2022-10-07T16:33:51.565Z,16.70
2022-10-07T16:36:18.450Z,18.80
2022-10-07T16:38:45.739Z,20.08
2022-10-07T16:41:12.639Z,20.42
2022-10-07T16:43:39.338Z,21.90
2022-10-07T16:46:09.128Z,19.73
2022-10-07T16:48:39.704Z,19.95
2022-10-07T16:51:11.381Z,19.15
2022-10-07T16:53:38.707Z,18.23
2022-10-07T16:56:05.634Z,18.75
2022-10-07T16:58:33.239Z,18.02
2022-10-07T17:01:01.733Z,18.15
2022-10-07T17:03:29.058Z,19.88
2022-10-07T17:05:57.071Z,18.83
2022-10-07T17:08:23.852Z,18.92
2022-10-07T17:10:50.491Z,19.50
2022-10-07T17:13:18.370Z,18.92
2022-10-07T17:15:48.051Z,19.83
2022-10-07T17:18:18.570Z,19.88
2022-10-07T17:20:50.011Z,18.95
2022-10-07T17:23:16.871Z,19.23
2022-10-07T17:25:46.189Z,18.35
2022-10-07T17:28:13.612Z,19.65
2022-10-07T17:30:40.753Z,18.70
2022-10-07T17:33:07.508Z,20.92
2022-10-07T17:35:34.357Z,20.17
2022-10-07T17:38:01.797Z,20.42
2022-10-07T17:40:30.459Z,18.92
2022-10-07T17:42:59.320Z,19.48
2022-10-07T17:45:25.890Z,21.02
2022-10-07T17:47:54.342Z,21.65
2022-10-07T17:50:20.927Z,21.58
2022-10-07T17:52:47.575Z,20.27
2022-10-07T17:55:14.284Z,21.27
2022-10-07T17:57:40.904Z,20.92
2022-10-07T18:00:08.017Z,22.33
2022-10-07T18:02:34.986Z,22.48
2022-10-07T18:05:01.637Z,22.98
2022-10-07T18:07:29.098Z,20.65
2022-10-07T18:09:55.701Z,22.35
2022-10-07T18:12:42.285Z,21.25
2022-10-07T18:15:25.107Z,23.15
2022-10-07T18:17:52.013Z,22.73
2022-10-07T18:20:19.786Z,23.15
2022-10-07T18:22:46.555Z,28.17
2022-10-07T18:25:13.246Z,23.13
2022-10-07T18:27:40.099Z,24.17
2022-10-07T18:30:07.621Z,22.80
2022-10-07T18:32:34.219Z,22.45
2022-10-07T18:35:00.864Z,21.08
2022-10-07T18:37:27.469Z,21.75
2022-10-07T18:39:54.102Z,24.00
2022-10-07T18:42:20.726Z,23.65
2022-10-07T18:44:47.352Z,23.05
2022-10-07T18:47:13.975Z,23.13
2022-10-07T18:49:40.603Z,23.38
2022-10-07T18:52:07.336Z,23.73
2022-10-07T18:54:33.973Z,22.13
2022-10-07T18:57:00.574Z,21.60
2022-10-07T18:59:27.155Z,24.83
2022-10-07T19:01:53.915Z,23.08
2022-10-07T19:04:20.836Z,23.23
2022-10-07T19:06:47.767Z,23.75
2022-10-07T19:09:17.705Z,22.25
2022-10-07T19:11:44.535Z,22.23
2022-10-07T19:14:11.591Z,22.25
2022-10-07T19:16:39.903Z,22.23
2022-10-07T19:19:13.619Z,22.45
2022-10-07T19:21:40.238Z,22.40
2022-10-07T19:24:06.863Z,22.05
2022-10-07T19:26:36.084Z,23.08
2022-10-07T19:29:03.221Z,24.15
2022-10-07T19:31:31.930Z,22.17
2022-10-07T19:34:02.957Z,20.92
2022-10-07T19:36:31.005Z,21.77
2022-10-07T19:38:58.401Z,20.05
2022-10-07T19:41:27.299Z,21.25
2022-10-07T19:43:54.010Z,18.17
2022-10-07T19:46:21.237Z,20.85
2022-10-07T19:48:47.957Z,21.33
2022-10-07T19:51:17.511Z,23.27
2022-10-07T19:53:46.989Z,20.75
2022-10-07T19:56:16.925Z,26.38
2022-10-07T19:58:47.407Z,22.20
2022-10-07T20:01:14.615Z,20.08
2022-10-07T20:03:41.231Z,24.23
2022-10-07T20:06:08.968Z,24.52
2022-10-07T20:08:37.311Z,22.85
2022-10-07T20:11:04.408Z,22.13
2022-10-07T20:13:32.720Z,23.90
2022-10-07T20:16:18.866Z,23.92
2022-10-07T20:18:47.859Z,27.90
2022-10-07T20:21:17.440Z,24.25
2022-10-07T20:23:45.617Z,25.05
2022-10-07T20:26:17.690Z,27.17
2022-10-07T20:28:45.310Z,22.05
2022-10-07T20:31:12.601Z,22.55
2022-10-07T20:33:43.831Z,24.30
2022-10-07T20:36:10.893Z,25.23
2022-10-07T20:38:57.546Z,22.80
2022-10-07T20:41:44.350Z,24.35
2022-10-07T20:44:11.468Z,22.05
2022-10-07T20:46:38.218Z,26.98
2022-10-07T20:49:12.179Z,24.63
2022-10-07T20:51:39.703Z,24.52
2022-10-07T20:54:06.600Z,22.95
2022-10-07T20:56:33.146Z,22.88
2022-10-07T20:58:59.766Z,21.38
2022-10-07T21:01:27.339Z,27.48
2022-10-07T21:03:53.972Z,27.02
2022-10-07T21:06:21.410Z,26.23
2022-10-07T21:08:47.999Z,24.40
2022-10-07T21:11:14.783Z,25.00
2022-10-07T21:13:41.367Z,26.23
2022-10-07T21:16:07.979Z,30.25
2022-10-07T21:18:34.592Z,27.83
2022-10-07T21:21:01.190Z,26.15
2022-10-07T21:23:29.217Z,23.38
2022-10-07T21:25:59.849Z,24.25
2022-10-07T21:28:26.532Z,25.30
2022-10-07T21:30:55.459Z,24.40
2022-10-07T21:33:22.120Z,23.17
2022-10-07T21:35:48.711Z,24.50
2022-10-07T21:38:15.295Z,22.60
2022-10-07T21:40:42.437Z,24.23
2022-10-07T21:43:08.973Z,23.95
2022-10-07T21:45:35.563Z,24.52
2022-10-07T21:48:02.155Z,19.85
2022-10-07T21:50:28.720Z,22.35
2022-10-07T21:52:55.315Z,20.60
2022-10-07T21:55:21.885Z,20.35
2022-10-07T21:57:48.459Z,21.08
2022-10-07T22:00:15.929Z,21.95
2022-10-07T22:02:42.726Z,19.00
2022-10-07T22:05:11.459Z,19.75
2022-10-07T22:07:57.975Z,20.92
2022-10-07T22:10:24.547Z,19.60
2022-10-07T22:12:51.136Z,18.50
2022-10-07T22:15:17.778Z,18.25
2022-10-07T22:17:44.410Z,16.88
2022-10-07T22:20:10.982Z,21.42
2022-10-07T22:22:37.570Z,20.73
2022-10-07T22:25:04.499Z,21.23
2022-10-07T22:27:31.056Z,19.52
2022-10-07T22:29:58.486Z,19.55
2022-10-07T22:32:25.062Z,19.05
2022-10-07T22:35:11.598Z,18.45
2022-10-07T22:37:38.230Z,18.73
2022-10-07T22:40:05.341Z,20.05
2022-10-07T22:42:32.773Z,18.48
2022-10-07T22:44:59.353Z,19.38
2022-10-07T22:47:25.929Z,21.85
2022-10-07T22:49:52.539Z,21.75
2022-10-07T22:52:19.133Z,23.33
2022-10-07T22:54:45.762Z,21.95
2022-10-07T22:57:12.327Z,22.67
2022-10-07T22:59:38.993Z,23.70
2022-10-07T23:02:05.603Z,22.80
2022-10-07T23:04:32.179Z,25.60
2022-10-07T23:06:59.341Z,24.98
2022-10-07T23:09:25.916Z,25.80
2022-10-07T23:11:52.502Z,25.17
2022-10-07T23:14:19.156Z,24.60
2022-10-07T23:16:45.782Z,26.90
2022-10-07T23:19:12.424Z,26.48
2022-10-07T23:21:38.999Z,25.85
2022-10-07T23:24:08.095Z,25.90
2022-10-07T23:26:35.475Z,25.65
2022-10-07T23:29:02.326Z,23.70
2022-10-07T23:31:30.321Z,24.83
2022-10-07T23:33:57.190Z,22.98
2022-10-07T23:36:23.847Z,25.35
2022-10-07T23:38:50.834Z,25.02
2022-10-07T23:41:20.001Z,26.30
2022-10-07T23:43:49.099Z,24.70
2022-10-07T23:46:15.726Z,26.65
2022-10-07T23:48:42.491Z,25.45
2022-10-07T23:51:11.378Z,23.45
2022-10-07T23:53:38.010Z,22.65
2022-10-07T23:56:04.790Z,25.45
2022-10-07T23:58:31.672Z,23.88
